sensor_id;sensor_type;location;lat;lon;timestamp;P1;durP1;ratioP1;P2;durP2;ratioP2
13147;SDS011;6639;50.956;4.242;2022-10-31T00:01:23;9.50;;;6.82;;
13147;SDS011;6639;50.956;4.242;2022-10-31T00:03:51;9.40;;;6.32;;
13147;SDS011;6639;50.956;4.242;2022-10-31T00:06:18;7.38;;;6.68;;
13147;SDS011;6639;50.956;4.242;2022-10-31T00:08:45;11.88;;;7.65;;
13147;SDS011;6639;50.956;4.242;2022-10-31T00:11:12;9.77;;;7.60;;
13147;SDS011;6639;50.956;4.242;2022-10-31T00:13:41;9.23;;;8.18;;
13147;SDS011;6639;50.956;4.242;2022-10-31T00:16:13;11.25;;;7.18;;
13147;SDS011;6639;50.956;4.242;2022-10-31T00:18:41;9.23;;;6.78;;
13147;SDS011;6639;50.956;4.242;2022-10-31T00:21:08;8.15;;;6.43;;
13147;SDS011;6639;50.956;4.242;2022-10-31T00:23:34;7.70;;;6.95;;
13147;SDS011;6639;50.956;4.242;2022-10-31T00:26:02;10.13;;;7.90;;
13147;SDS011;6639;50.956;4.242;2022-10-31T00:28:30;9.30;;;8.13;;
13147;SDS011;6639;50.956;4.242;2022-10-31T00:30:59;8.50;;;7.28;;
13147;SDS011;6639;50.956;4.242;2022-10-31T00:33:27;10.30;;;8.10;;
13147;SDS011;6639;50.956;4.242;2022-10-31T00:35:55;12.15;;;8.02;;
13147;SDS011;6639;50.956;4.242;2022-10-31T00:38:22;12.95;;;7.70;;
13147;SDS011;6639;50.956;4.242;2022-10-31T00:40:49;12.70;;;8.40;;
13147;SDS011;6639;50.956;4.242;2022-10-31T00:43:16;9.10;;;7.93;;
13147;SDS011;6639;50.956;4.242;2022-10-31T00:45:43;13.55;;;9.05;;
13147;SDS011;6639;50.956;4.242;2022-10-31T00:48:11;13.05;;;8.80;;
13147;SDS011;6639;50.956;4.242;2022-10-31T00:50:38;11.25;;;9.35;;
13147;SDS011;6639;50.956;4.242;2022-10-31T00:53:06;13.32;;;8.88;;
13147;SDS011;6639;50.956;4.242;2022-10-31T00:55:33;13.57;;;8.65;;
13147;SDS011;6639;50.956;4.242;2022-10-31T00:58:00;10.95;;;9.38;;
13147;SDS011;6639;50.956;4.242;2022-10-31T01:00:27;10.93;;;9.82;;
13147;SDS011;6639;50.956;4.242;2022-10-31T01:02:54;10.77;;;8.93;;
13147;SDS011;6639;50.956;4.242;2022-10-31T01:05:23;11.77;;;9.15;;
13147;SDS011;6639;50.956;4.242;2022-10-31T01:07:50;12.40;;;8.88;;
13147;SDS011;6639;50.956;4.242;2022-10-31T01:10:17;11.50;;;8.52;;
13147;SDS011;6639;50.956;4.242;2022-10-31T01:12:44;10.82;;;8.25;;
13147;SDS011;6639;50.956;4.242;2022-10-31T01:15:14;9.52;;;7.78;;
13147;SDS011;6639;50.956;4.242;2022-10-31T01:17:42;12.27;;;9.07;;
13147;SDS011;6639;50.956;4.242;2022-10-31T01:20:10;9.82;;;8.27;;
13147;SDS011;6639;50.956;4.242;2022-10-31T01:22:39;10.48;;;7.82;;
13147;SDS011;6639;50.956;4.242;2022-10-31T01:25:07;8.30;;;7.43;;
13147;SDS011;6639;50.956;4.242;2022-10-31T01:27:35;8.60;;;7.38;;
13147;SDS011;6639;50.956;4.242;2022-10-31T01:30:02;10.90;;;7.80;;
13147;SDS011;6639;50.956;4.242;2022-10-31T01:32:29;8.30;;;7.40;;
13147;SDS011;6639;50.956;4.242;2022-10-31T01:34:57;10.50;;;6.80;;
13147;SDS011;6639;50.956;4.242;2022-10-31T01:37:24;7.28;;;6.53;;
13147;SDS011;6639;50.956;4.242;2022-10-31T01:39:52;7.35;;;5.28;;
13147;SDS011;6639;50.956;4.242;2022-10-31T01:42:19;6.32;;;5.72;;
13147;SDS011;6639;50.956;4.242;2022-10-31T01:44:52;9.18;;;6.75;;
13147;SDS011;6639;50.956;4.242;2022-10-31T01:47:31;8.85;;;8.00;;
13147;SDS011;6639;50.956;4.242;2022-10-31T01:50:04;9.15;;;7.28;;
13147;SDS011;6639;50.956;4.242;2022-10-31T01:52:37;8.85;;;7.90;;
13147;SDS011;6639;50.956;4.242;2022-10-31T01:55:10;11.30;;;8.75;;
13147;SDS011;6639;50.956;4.242;2022-10-31T01:57:42;10.52;;;8.70;;
13147;SDS011;6639;50.956;4.242;2022-10-31T02:00:13;9.70;;;8.48;;
13147;SDS011;6639;50.956;4.242;2022-10-31T02:02:40;9.80;;;8.02;;
13147;SDS011;6639;50.956;4.242;2022-10-31T02:05:09;11.38;;;9.02;;
13147;SDS011;6639;50.956;4.242;2022-10-31T02:07:39;9.55;;;7.90;;
13147;SDS011;6639;50.956;4.242;2022-10-31T02:10:12;10.45;;;8.73;;
13147;SDS011;6639;50.956;4.242;2022-10-31T02:12:39;10.05;;;8.38;;
13147;SDS011;6639;50.956;4.242;2022-10-31T02:15:08;12.18;;;8.35;;
13147;SDS011;6639;50.956;4.242;2022-10-31T02:17:36;9.88;;;8.52;;
13147;SDS011;6639;50.956;4.242;2022-10-31T02:20:05;12.25;;;8.85;;
13147;SDS011;6639;50.956;4.242;2022-10-31T02:22:40;10.05;;;8.50;;
13147;SDS011;6639;50.956;4.242;2022-10-31T02:28:33;12.75;;;8.07;;
13147;SDS011;6639;50.956;4.242;2022-10-31T02:31:28;9.18;;;7.55;;
13147;SDS011;6639;50.956;4.242;2022-10-31T02:34:01;7.70;;;6.97;;
13147;SDS011;6639;50.956;4.242;2022-10-31T02:36:38;8.07;;;7.28;;
13147;SDS011;6639;50.956;4.242;2022-10-31T02:39:10;11.73;;;8.18;;
13147;SDS011;6639;50.956;4.242;2022-10-31T02:41:44;9.73;;;7.45;;
13147;SDS011;6639;50.956;4.242;2022-10-31T02:44:16;13.35;;;8.30;;
13147;SDS011;6639;50.956;4.242;2022-10-31T02:46:50;11.73;;;8.25;;
13147;SDS011;6639;50.956;4.242;2022-10-31T02:49:24;10.07;;;7.65;;
13147;SDS011;6639;50.956;4.242;2022-10-31T02:51:55;9.48;;;7.22;;
13147;SDS011;6639;50.956;4.242;2022-10-31T02:54:22;11.07;;;7.38;;
13147;SDS011;6639;50.956;4.242;2022-10-31T02:56:51;9.65;;;6.93;;
13147;SDS011;6639;50.956;4.242;2022-10-31T02:59:21;11.90;;;6.85;;
13147;SDS011;6639;50.956;4.242;2022-10-31T03:01:56;7.25;;;6.50;;
13147;SDS011;6639;50.956;4.242;2022-10-31T03:04:49;8.13;;;6.60;;
13147;SDS011;6639;50.956;4.242;2022-10-31T03:07:27;9.80;;;7.00;;
13147;SDS011;6639;50.956;4.242;2022-10-31T03:10:03;5.80;;;5.20;;
13147;SDS011;6639;50.956;4.242;2022-10-31T03:12:38;6.05;;;3.63;;
13147;SDS011;6639;50.956;4.242;2022-10-31T03:15:11;6.68;;;4.30;;
13147;SDS011;6639;50.956;4.242;2022-10-31T03:17:47;4.13;;;3.72;;
13147;SDS011;6639;50.956;4.242;2022-10-31T03:20:20;4.82;;;4.30;;
13147;SDS011;6639;50.956;4.242;2022-10-31T03:22:52;5.47;;;5.00;;
13147;SDS011;6639;50.956;4.242;2022-10-31T03:25:21;6.03;;;5.45;;
13147;SDS011;6639;50.956;4.242;2022-10-31T03:27:49;6.57;;;5.97;;
13147;SDS011;6639;50.956;4.242;2022-10-31T03:30:17;5.95;;;5.32;;
13147;SDS011;6639;50.956;4.242;2022-10-31T03:32:45;5.88;;;5.38;;
13147;SDS011;6639;50.956;4.242;2022-10-31T03:35:17;5.28;;;4.88;;
13147;SDS011;6639;50.956;4.242;2022-10-31T03:37:46;6.00;;;5.20;;
13147;SDS011;6639;50.956;4.242;2022-10-31T03:40:15;5.15;;;4.70;;
13147;SDS011;6639;50.956;4.242;2022-10-31T03:42:46;4.28;;;3.97;;
13147;SDS011;6639;50.956;4.242;2022-10-31T03:45:20;5.47;;;4.40;;
13147;SDS011;6639;50.956;4.242;2022-10-31T03:47:51;4.30;;;3.90;;
13147;SDS011;6639;50.956;4.242;2022-10-31T03:50:19;4.82;;;4.38;;
13147;SDS011;6639;50.956;4.242;2022-10-31T03:52:47;5.03;;;4.63;;
13147;SDS011;6639;50.956;4.242;2022-10-31T03:55:19;5.47;;;4.97;;
13147;SDS011;6639;50.956;4.242;2022-10-31T03:57:53;4.53;;;4.22;;
13147;SDS011;6639;50.956;4.242;2022-10-31T04:00:25;5.13;;;4.63;;
13147;SDS011;6639;50.956;4.242;2022-10-31T04:02:55;5.78;;;3.55;;
13147;SDS011;6639;50.956;4.242;2022-10-31T04:05:26;2.85;;;2.65;;
13147;SDS011;6639;50.956;4.242;2022-10-31T04:07:55;3.20;;;2.75;;
13147;SDS011;6639;50.956;4.242;2022-10-31T04:10:25;3.67;;;3.38;;
13147;SDS011;6639;50.956;4.242;2022-10-31T04:12:54;5.13;;;4.43;;
13147;SDS011;6639;50.956;4.242;2022-10-31T04:15:24;4.97;;;4.57;;
13147;SDS011;6639;50.956;4.242;2022-10-31T04:17:55;3.38;;;3.08;;
13147;SDS011;6639;50.956;4.242;2022-10-31T04:20:31;2.40;;;2.20;;
13147;SDS011;6639;50.956;4.242;2022-10-31T04:22:59;2.25;;;2.15;;
13147;SDS011;6639;50.956;4.242;2022-10-31T04:25:26;2.67;;;2.47;;
13147;SDS011;6639;50.956;4.242;2022-10-31T04:27:54;2.92;;;2.67;;
13147;SDS011;6639;50.956;4.242;2022-10-31T04:30:21;2.92;;;2.72;;
13147;SDS011;6639;50.956;4.242;2022-10-31T04:32:48;3.45;;;3.25;;
13147;SDS011;6639;50.956;4.242;2022-10-31T04:35:16;3.65;;;3.30;;
13147;SDS011;6639;50.956;4.242;2022-10-31T04:37:43;4.45;;;4.13;;
13147;SDS011;6639;50.956;4.242;2022-10-31T04:40:10;4.82;;;4.18;;
13147;SDS011;6639;50.956;4.242;2022-10-31T04:42:37;5.20;;;4.70;;
13147;SDS011;6639;50.956;4.242;2022-10-31T04:45:04;4.63;;;4.22;;
13147;SDS011;6639;50.956;4.242;2022-10-31T04:47:32;8.18;;;5.18;;
13147;SDS011;6639;50.956;4.242;2022-10-31T04:49:59;4.65;;;4.20;;
13147;SDS011;6639;50.956;4.242;2022-10-31T04:52:28;5.38;;;3.90;;
13147;SDS011;6639;50.956;4.242;2022-10-31T04:54:54;5.63;;;5.05;;
13147;SDS011;6639;50.956;4.242;2022-10-31T04:57:21;4.70;;;4.13;;
13147;SDS011;6639;50.956;4.242;2022-10-31T04:59:48;5.97;;;4.70;;
13147;SDS011;6639;50.956;4.242;2022-10-31T05:02:15;4.90;;;4.50;;
13147;SDS011;6639;50.956;4.242;2022-10-31T05:04:42;3.90;;;3.60;;
13147;SDS011;6639;50.956;4.242;2022-10-31T05:07:09;3.58;;;3.28;;
13147;SDS011;6639;50.956;4.242;2022-10-31T05:09:37;4.15;;;3.75;;
13147;SDS011;6639;50.956;4.242;2022-10-31T05:12:04;4.03;;;3.70;;
13147;SDS011;6639;50.956;4.242;2022-10-31T05:14:31;5.35;;;3.80;;
13147;SDS011;6639;50.956;4.242;2022-10-31T05:16:57;7.55;;;5.15;;
13147;SDS011;6639;50.956;4.242;2022-10-31T05:19:24;4.80;;;4.30;;
13147;SDS011;6639;50.956;4.242;2022-10-31T05:21:51;3.85;;;3.55;;
13147;SDS011;6639;50.956;4.242;2022-10-31T05:24:18;3.92;;;3.58;;
13147;SDS011;6639;50.956;4.242;2022-10-31T05:26:48;5.07;;;3.45;;
13147;SDS011;6639;50.956;4.242;2022-10-31T05:29:15;4.65;;;3.85;;
13147;SDS011;6639;50.956;4.242;2022-10-31T05:31:42;5.28;;;4.22;;
13147;SDS011;6639;50.956;4.242;2022-10-31T05:34:09;8.10;;;4.55;;
13147;SDS011;6639;50.956;4.242;2022-10-31T05:36:35;5.63;;;5.03;;
13147;SDS011;6639;50.956;4.242;2022-10-31T05:39:02;6.28;;;5.13;;
13147;SDS011;6639;50.956;4.242;2022-10-31T05:41:29;6.15;;;5.03;;
13147;SDS011;6639;50.956;4.242;2022-10-31T05:43:57;6.45;;;5.45;;
13147;SDS011;6639;50.956;4.242;2022-10-31T05:46:24;5.72;;;5.05;;
13147;SDS011;6639;50.956;4.242;2022-10-31T05:48:51;5.55;;;5.05;;
13147;SDS011;6639;50.956;4.242;2022-10-31T05:51:18;6.43;;;4.53;;
13147;SDS011;6639;50.956;4.242;2022-10-31T05:53:45;5.85;;;5.10;;
13147;SDS011;6639;50.956;4.242;2022-10-31T05:56:13;5.07;;;4.68;;
13147;SDS011;6639;50.956;4.242;2022-10-31T05:58:39;6.00;;;4.63;;
13147;SDS011;6639;50.956;4.242;2022-10-31T06:01:08;6.70;;;6.07;;
13147;SDS011;6639;50.956;4.242;2022-10-31T06:03:34;6.80;;;5.57;;
13147;SDS011;6639;50.956;4.242;2022-10-31T06:06:01;7.50;;;5.47;;
13147;SDS011;6639;50.956;4.242;2022-10-31T06:08:28;7.95;;;6.18;;
13147;SDS011;6639;50.956;4.242;2022-10-31T06:10:55;6.63;;;5.93;;
13147;SDS011;6639;50.956;4.242;2022-10-31T06:13:22;5.85;;;5.32;;
13147;SDS011;6639;50.956;4.242;2022-10-31T06:15:49;6.15;;;5.55;;
13147;SDS011;6639;50.956;4.242;2022-10-31T06:18:17;5.90;;;4.90;;
13147;SDS011;6639;50.956;4.242;2022-10-31T06:20:44;5.90;;;5.40;;
13147;SDS011;6639;50.956;4.242;2022-10-31T06:23:11;7.90;;;4.43;;
13147;SDS011;6639;50.956;4.242;2022-10-31T06:25:37;6.35;;;5.22;;
13147;SDS011;6639;50.956;4.242;2022-10-31T06:28:04;5.85;;;5.32;;
13147;SDS011;6639;50.956;4.242;2022-10-31T06:30:31;6.10;;;5.60;;
13147;SDS011;6639;50.956;4.242;2022-10-31T06:33:01;6.78;;;5.75;;
13147;SDS011;6639;50.956;4.242;2022-10-31T06:35:31;4.95;;;4.45;;
13147;SDS011;6639;50.956;4.242;2022-10-31T06:37:57;7.72;;;6.20;;
13147;SDS011;6639;50.956;4.242;2022-10-31T06:40:24;7.60;;;6.65;;
13147;SDS011;6639;50.956;4.242;2022-10-31T06:42:57;7.22;;;6.50;;
13147;SDS011;6639;50.956;4.242;2022-10-31T06:45:25;7.47;;;6.10;;
13147;SDS011;6639;50.956;4.242;2022-10-31T06:47:52;7.45;;;5.68;;
13147;SDS011;6639;50.956;4.242;2022-10-31T06:50:19;8.32;;;7.53;;
13147;SDS011;6639;50.956;4.242;2022-10-31T06:52:51;9.80;;;7.55;;
13147;SDS011;6639;50.956;4.242;2022-10-31T06:55:18;11.88;;;7.50;;
13147;SDS011;6639;50.956;4.242;2022-10-31T06:57:50;9.30;;;7.32;;
13147;SDS011;6639;50.956;4.242;2022-10-31T07:00:17;8.25;;;7.13;;
13147;SDS011;6639;50.956;4.242;2022-10-31T07:02:52;11.48;;;8.35;;
13147;SDS011;6639;50.956;4.242;2022-10-31T07:05:20;8.90;;;7.57;;
13147;SDS011;6639;50.956;4.242;2022-10-31T07:07:47;12.32;;;9.45;;
13147;SDS011;6639;50.956;4.242;2022-10-31T07:10:20;12.10;;;9.35;;
13147;SDS011;6639;50.956;4.242;2022-10-31T07:12:47;11.50;;;8.82;;
13147;SDS011;6639;50.956;4.242;2022-10-31T07:15:14;11.25;;;8.98;;
13147;SDS011;6639;50.956;4.242;2022-10-31T07:17:40;10.57;;;9.45;;
13147;SDS011;6639;50.956;4.242;2022-10-31T07:20:08;10.38;;;9.32;;
13147;SDS011;6639;50.956;4.242;2022-10-31T07:22:35;8.40;;;7.65;;
13147;SDS011;6639;50.956;4.242;2022-10-31T07:25:05;9.77;;;7.88;;
13147;SDS011;6639;50.956;4.242;2022-10-31T07:27:35;10.52;;;7.63;;
13147;SDS011;6639;50.956;4.242;2022-10-31T07:30:03;9.35;;;8.38;;
13147;SDS011;6639;50.956;4.242;2022-10-31T07:32:36;10.75;;;8.65;;
13147;SDS011;6639;50.956;4.242;2022-10-31T07:35:04;11.20;;;8.90;;
13147;SDS011;6639;50.956;4.242;2022-10-31T07:37:31;10.50;;;8.65;;
13147;SDS011;6639;50.956;4.242;2022-10-31T07:39:58;9.57;;;8.65;;
13147;SDS011;6639;50.956;4.242;2022-10-31T07:42:26;11.43;;;7.97;;
13147;SDS011;6639;50.956;4.242;2022-10-31T07:44:53;11.52;;;8.68;;
13147;SDS011;6639;50.956;4.242;2022-10-31T07:47:20;10.70;;;8.10;;
13147;SDS011;6639;50.956;4.242;2022-10-31T07:49:47;9.20;;;8.10;;
13147;SDS011;6639;50.956;4.242;2022-10-31T07:52:14;8.68;;;7.88;;
13147;SDS011;6639;50.956;4.242;2022-10-31T07:54:40;13.70;;;8.27;;
13147;SDS011;6639;50.956;4.242;2022-10-31T07:57:07;8.98;;;8.05;;
13147;SDS011;6639;50.956;4.242;2022-10-31T07:59:36;8.88;;;7.97;;
13147;SDS011;6639;50.956;4.242;2022-10-31T08:02:02;9.63;;;8.55;;
13147;SDS011;6639;50.956;4.242;2022-10-31T08:04:29;9.75;;;8.55;;
13147;SDS011;6639;50.956;4.242;2022-10-31T08:06:56;11.25;;;9.20;;
13147;SDS011;6639;50.956;4.242;2022-10-31T08:09:23;11.93;;;9.68;;
13147;SDS011;6639;50.956;4.242;2022-10-31T08:11:50;13.45;;;9.57;;
13147;SDS011;6639;50.956;4.242;2022-10-31T08:14:19;12.05;;;10.18;;
13147;SDS011;6639;50.956;4.242;2022-10-31T08:16:47;11.40;;;9.75;;
13147;SDS011;6639;50.956;4.242;2022-10-31T08:19:14;13.55;;;10.43;;
13147;SDS011;6639;50.956;4.242;2022-10-31T08:21:41;15.27;;;11.07;;
13147;SDS011;6639;50.956;4.242;2022-10-31T08:24:07;12.30;;;10.40;;
13147;SDS011;6639;50.956;4.242;2022-10-31T08:26:34;12.82;;;10.50;;
13147;SDS011;6639;50.956;4.242;2022-10-31T08:29:01;13.35;;;11.35;;
13147;SDS011;6639;50.956;4.242;2022-10-31T08:31:28;14.95;;;11.02;;
13147;SDS011;6639;50.956;4.242;2022-10-31T08:33:57;15.13;;;11.20;;
13147;SDS011;6639;50.956;4.242;2022-10-31T08:36:24;12.18;;;10.93;;
13147;SDS011;6639;50.956;4.242;2022-10-31T08:38:50;16.08;;;12.13;;
13147;SDS011;6639;50.956;4.242;2022-10-31T08:41:17;16.08;;;11.95;;
13147;SDS011;6639;50.956;4.242;2022-10-31T08:43:44;12.20;;;10.82;;
13147;SDS011;6639;50.956;4.242;2022-10-31T08:46:12;14.25;;;10.60;;
13147;SDS011;6639;50.956;4.242;2022-10-31T08:48:39;13.90;;;11.23;;
13147;SDS011;6639;50.956;4.242;2022-10-31T08:51:07;15.13;;;11.68;;
13147;SDS011;6639;50.956;4.242;2022-10-31T08:53:35;14.77;;;11.85;;
13147;SDS011;6639;50.956;4.242;2022-10-31T08:56:02;14.40;;;11.80;;
13147;SDS011;6639;50.956;4.242;2022-10-31T08:58:29;16.75;;;11.57;;
13147;SDS011;6639;50.956;4.242;2022-10-31T09:00:58;14.35;;;12.07;;
13147;SDS011;6639;50.956;4.242;2022-10-31T09:03:27;16.30;;;12.23;;
13147;SDS011;6639;50.956;4.242;2022-10-31T09:05:56;13.48;;;12.05;;
13147;SDS011;6639;50.956;4.242;2022-10-31T09:08:26;17.42;;;12.35;;
13147;SDS011;6639;50.956;4.242;2022-10-31T09:10:55;16.95;;;13.27;;
13147;SDS011;6639;50.956;4.242;2022-10-31T09:13:23;13.05;;;11.63;;
13147;SDS011;6639;50.956;4.242;2022-10-31T09:15:50;14.07;;;12.57;;
13147;SDS011;6639;50.956;4.242;2022-10-31T09:18:18;15.73;;;13.90;;
13147;SDS011;6639;50.956;4.242;2022-10-31T09:20:46;15.02;;;12.15;;
13147;SDS011;6639;50.956;4.242;2022-10-31T09:23:14;19.00;;;13.60;;
13147;SDS011;6639;50.956;4.242;2022-10-31T09:25:43;16.52;;;13.82;;
13147;SDS011;6639;50.956;4.242;2022-10-31T09:28:11;16.40;;;13.27;;
13147;SDS011;6639;50.956;4.242;2022-10-31T09:30:40;15.27;;;12.55;;
13147;SDS011;6639;50.956;4.242;2022-10-31T09:33:09;15.43;;;12.98;;
13147;SDS011;6639;50.956;4.242;2022-10-31T09:35:37;14.80;;;12.70;;
13147;SDS011;6639;50.956;4.242;2022-10-31T09:38:05;15.23;;;12.00;;
13147;SDS011;6639;50.956;4.242;2022-10-31T09:40:35;14.80;;;12.30;;
13147;SDS011;6639;50.956;4.242;2022-10-31T09:43:07;18.67;;;13.35;;
13147;SDS011;6639;50.956;4.242;2022-10-31T09:45:42;14.65;;;13.20;;
13147;SDS011;6639;50.956;4.242;2022-10-31T09:51:04;17.48;;;13.55;;
13147;SDS011;6639;50.956;4.242;2022-10-31T09:53:35;18.40;;;12.65;;
13147;SDS011;6639;50.956;4.242;2022-10-31T09:56:06;14.63;;;13.15;;
13147;SDS011;6639;50.956;4.242;2022-10-31T09:58:39;15.40;;;13.55;;
13147;SDS011;6639;50.956;4.242;2022-10-31T10:01:14;14.93;;;13.32;;
13147;SDS011;6639;50.956;4.242;2022-10-31T10:03:49;15.70;;;13.52;;
13147;SDS011;6639;50.956;4.242;2022-10-31T10:06:21;14.73;;;13.15;;
13147;SDS011;6639;50.956;4.242;2022-10-31T10:08:50;16.60;;;13.07;;
13147;SDS011;6639;50.956;4.242;2022-10-31T10:11:22;14.38;;;12.55;;
13147;SDS011;6639;50.956;4.242;2022-10-31T10:14:04;18.27;;;13.02;;
13147;SDS011;6639;50.956;4.242;2022-10-31T10:16:47;14.95;;;12.50;;
13147;SDS011;6639;50.956;4.242;2022-10-31T10:19:25;17.25;;;14.02;;
13147;SDS011;6639;50.956;4.242;2022-10-31T10:22:02;14.48;;;12.75;;
13147;SDS011;6639;50.956;4.242;2022-10-31T10:24:39;14.82;;;13.32;;
13147;SDS011;6639;50.956;4.242;2022-10-31T10:27:22;15.55;;;13.57;;
13147;SDS011;6639;50.956;4.242;2022-10-31T10:30:00;15.60;;;14.05;;
13147;SDS011;6639;50.956;4.242;2022-10-31T10:32:33;13.90;;;12.55;;
13147;SDS011;6639;50.956;4.242;2022-10-31T10:35:10;17.10;;;14.48;;
13147;SDS011;6639;50.956;4.242;2022-10-31T10:37:45;17.52;;;13.73;;
13147;SDS011;6639;50.956;4.242;2022-10-31T10:40:16;15.88;;;14.13;;
13147;SDS011;6639;50.956;4.242;2022-10-31T10:42:44;16.92;;;13.88;;
13147;SDS011;6639;50.956;4.242;2022-10-31T10:45:35;15.00;;;12.65;;
13147;SDS011;6639;50.956;4.242;2022-10-31T10:48:27;12.93;;;11.73;;
13147;SDS011;6639;50.956;4.242;2022-10-31T10:51:02;16.05;;;12.90;;
13147;SDS011;6639;50.956;4.242;2022-10-31T10:53:37;18.73;;;13.65;;
13147;SDS011;6639;50.956;4.242;2022-10-31T10:56:29;16.42;;;13.07;;
13147;SDS011;6639;50.956;4.242;2022-10-31T10:59:03;15.02;;;13.30;;
13147;SDS011;6639;50.956;4.242;2022-10-31T11:01:31;13.13;;;11.90;;
13147;SDS011;6639;50.956;4.242;2022-10-31T11:03:58;15.73;;;12.10;;
13147;SDS011;6639;50.956;4.242;2022-10-31T11:06:25;13.98;;;12.50;;
13147;SDS011;6639;50.956;4.242;2022-10-31T11:08:52;14.73;;;12.40;;
13147;SDS011;6639;50.956;4.242;2022-10-31T11:11:23;16.33;;;12.68;;
13147;SDS011;6639;50.956;4.242;2022-10-31T11:13:55;13.45;;;12.15;;
13147;SDS011;6639;50.956;4.242;2022-10-31T11:16:29;13.75;;;12.30;;
13147;SDS011;6639;50.956;4.242;2022-10-31T11:19:08;15.70;;;12.10;;
13147;SDS011;6639;50.956;4.242;2022-10-31T11:21:40;14.40;;;12.38;;
13147;SDS011;6639;50.956;4.242;2022-10-31T11:24:12;16.60;;;12.90;;
13147;SDS011;6639;50.956;4.242;2022-10-31T11:26:42;11.85;;;10.60;;
13147;SDS011;6639;50.956;4.242;2022-10-31T11:29:13;13.00;;;11.80;;
13147;SDS011;6639;50.956;4.242;2022-10-31T11:31:43;12.43;;;11.27;;
13147;SDS011;6639;50.956;4.242;2022-10-31T11:34:17;12.63;;;11.43;;
13147;SDS011;6639;50.956;4.242;2022-10-31T11:36:53;14.70;;;12.07;;
13147;SDS011;6639;50.956;4.242;2022-10-31T11:39:23;14.15;;;12.27;;
13147;SDS011;6639;50.956;4.242;2022-10-31T11:41:51;13.82;;;11.73;;
13147;SDS011;6639;50.956;4.242;2022-10-31T11:44:20;12.57;;;11.30;;
13147;SDS011;6639;50.956;4.242;2022-10-31T11:46:51;12.73;;;11.20;;
13147;SDS011;6639;50.956;4.242;2022-10-31T11:49:20;17.15;;;13.40;;
13147;SDS011;6639;50.956;4.242;2022-10-31T11:51:54;15.65;;;12.75;;
13147;SDS011;6639;50.956;4.242;2022-10-31T11:54:23;14.55;;;13.05;;
13147;SDS011;6639;50.956;4.242;2022-10-31T11:56:53;13.85;;;12.45;;
13147;SDS011;6639;50.956;4.242;2022-10-31T11:59:25;17.95;;;13.60;;
13147;SDS011;6639;50.956;4.242;2022-10-31T12:01:55;15.00;;;12.85;;
13147;SDS011;6639;50.956;4.242;2022-10-31T12:04:24;15.57;;;12.85;;
13147;SDS011;6639;50.956;4.242;2022-10-31T12:07:01;17.70;;;13.23;;
13147;SDS011;6639;50.956;4.242;2022-10-31T12:09:28;15.40;;;13.50;;
13147;SDS011;6639;50.956;4.242;2022-10-31T12:15:13;19.15;;;14.88;;
13147;SDS011;6639;50.956;4.242;2022-10-31T12:17:55;14.50;;;12.32;;
13147;SDS011;6639;50.956;4.242;2022-10-31T12:20:40;17.27;;;12.63;;
13147;SDS011;6639;50.956;4.242;2022-10-31T12:23:18;15.73;;;12.82;;
13147;SDS011;6639;50.956;4.242;2022-10-31T12:25:57;13.63;;;12.23;;
13147;SDS011;6639;50.956;4.242;2022-10-31T12:28:36;14.55;;;13.05;;
13147;SDS011;6639;50.956;4.242;2022-10-31T12:31:18;23.25;;;13.00;;
13147;SDS011;6639;50.956;4.242;2022-10-31T12:33:59;14.95;;;12.30;;
13147;SDS011;6639;50.956;4.242;2022-10-31T12:36:41;15.25;;;12.98;;
13147;SDS011;6639;50.956;4.242;2022-10-31T12:39:20;16.52;;;12.32;;
13147;SDS011;6639;50.956;4.242;2022-10-31T12:41:51;16.55;;;13.02;;
13147;SDS011;6639;50.956;4.242;2022-10-31T12:50:29;13.93;;;11.45;;
13147;SDS011;6639;50.956;4.242;2022-10-31T12:53:11;12.63;;;10.15;;
13147;SDS011;6639;50.956;4.242;2022-10-31T12:55:53;12.60;;;10.25;;
13147;SDS011;6639;50.956;4.242;2022-10-31T12:58:29;14.20;;;10.57;;
13147;SDS011;6639;50.956;4.242;2022-10-31T13:01:02;13.07;;;10.70;;
13147;SDS011;6639;50.956;4.242;2022-10-31T13:03:35;13.50;;;9.77;;
13147;SDS011;6639;50.956;4.242;2022-10-31T13:06:13;12.43;;;9.70;;
13147;SDS011;6639;50.956;4.242;2022-10-31T13:08:44;12.20;;;9.15;;
13147;SDS011;6639;50.956;4.242;2022-10-31T13:11:14;14.77;;;9.88;;
13147;SDS011;6639;50.956;4.242;2022-10-31T13:13:46;14.80;;;9.23;;
13147;SDS011;6639;50.956;4.242;2022-10-31T13:16:21;11.90;;;10.20;;
13147;SDS011;6639;50.956;4.242;2022-10-31T13:18:52;13.32;;;9.77;;
13147;SDS011;6639;50.956;4.242;2022-10-31T13:21:25;11.02;;;9.60;;
13147;SDS011;6639;50.956;4.242;2022-10-31T13:23:57;14.52;;;8.80;;
13147;SDS011;6639;50.956;4.242;2022-10-31T13:26:32;13.10;;;9.65;;
13147;SDS011;6639;50.956;4.242;2022-10-31T13:29:06;15.68;;;8.88;;
13147;SDS011;6639;50.956;4.242;2022-10-31T13:31:40;12.68;;;9.23;;
13147;SDS011;6639;50.956;4.242;2022-10-31T13:34:10;14.48;;;9.10;;
13147;SDS011;6639;50.956;4.242;2022-10-31T13:36:52;13.23;;;9.20;;
13147;SDS011;6639;50.956;4.242;2022-10-31T13:39:30;15.10;;;9.73;;
13147;SDS011;6639;50.956;4.242;2022-10-31T13:42:10;13.13;;;8.80;;
13147;SDS011;6639;50.956;4.242;2022-10-31T13:44:41;12.98;;;8.70;;
13147;SDS011;6639;50.956;4.242;2022-10-31T13:47:20;10.55;;;8.48;;
13147;SDS011;6639;50.956;4.242;2022-10-31T13:49:49;10.88;;;8.25;;
13147;SDS011;6639;50.956;4.242;2022-10-31T13:52:22;10.52;;;7.82;;
13147;SDS011;6639;50.956;4.242;2022-10-31T13:54:51;10.30;;;7.85;;
13147;SDS011;6639;50.956;4.242;2022-10-31T13:57:23;17.52;;;8.77;;
13147;SDS011;6639;50.956;4.242;2022-10-31T13:59:58;12.70;;;8.82;;
13147;SDS011;6639;50.956;4.242;2022-10-31T14:02:27;9.02;;;7.65;;
13147;SDS011;6639;50.956;4.242;2022-10-31T14:04:56;10.88;;;8.63;;
13147;SDS011;6639;50.956;4.242;2022-10-31T14:07:27;10.93;;;7.90;;
13147;SDS011;6639;50.956;4.242;2022-10-31T14:09:56;10.20;;;7.80;;
13147;SDS011;6639;50.956;4.242;2022-10-31T14:12:28;13.20;;;7.72;;
13147;SDS011;6639;50.956;4.242;2022-10-31T14:14:58;13.45;;;8.65;;
13147;SDS011;6639;50.956;4.242;2022-10-31T14:17:30;11.73;;;8.90;;
13147;SDS011;6639;50.956;4.242;2022-10-31T14:26:07;11.13;;;7.18;;
13147;SDS011;6639;50.956;4.242;2022-10-31T14:28:48;14.52;;;8.10;;
13147;SDS011;6639;50.956;4.242;2022-10-31T14:31:27;8.52;;;6.13;;
13147;SDS011;6639;50.956;4.242;2022-10-31T14:34:03;7.88;;;6.65;;
13147;SDS011;6639;50.956;4.242;2022-10-31T14:36:47;10.45;;;7.18;;
13147;SDS011;6639;50.956;4.242;2022-10-31T14:39:25;12.98;;;7.43;;
13147;SDS011;6639;50.956;4.242;2022-10-31T14:42:00;12.77;;;6.80;;
13147;SDS011;6639;50.956;4.242;2022-10-31T14:44:47;10.73;;;6.68;;
13147;SDS011;6639;50.956;4.242;2022-10-31T14:47:36;11.25;;;6.82;;
13147;SDS011;6639;50.956;4.242;2022-10-31T14:52:59;12.27;;;7.07;;
13147;SDS011;6639;50.956;4.242;2022-10-31T14:55:30;7.50;;;6.43;;
13147;SDS011;6639;50.956;4.242;2022-10-31T14:57:58;10.50;;;7.45;;
13147;SDS011;6639;50.956;4.242;2022-10-31T15:00:27;8.70;;;7.03;;
13147;SDS011;6639;50.956;4.242;2022-10-31T15:03:00;13.30;;;6.85;;
13147;SDS011;6639;50.956;4.242;2022-10-31T15:05:33;10.40;;;6.63;;
13147;SDS011;6639;50.956;4.242;2022-10-31T15:08:12;12.43;;;6.15;;
13147;SDS011;6639;50.956;4.242;2022-10-31T15:10:44;9.38;;;6.35;;
13147;SDS011;6639;50.956;4.242;2022-10-31T15:13:16;8.65;;;6.43;;
13147;SDS011;6639;50.956;4.242;2022-10-31T15:15:46;8.57;;;6.40;;
13147;SDS011;6639;50.956;4.242;2022-10-31T15:18:15;12.60;;;6.25;;
13147;SDS011;6639;50.956;4.242;2022-10-31T15:20:43;9.93;;;6.35;;
13147;SDS011;6639;50.956;4.242;2022-10-31T15:23:14;13.98;;;6.03;;
13147;SDS011;6639;50.956;4.242;2022-10-31T15:25:44;9.50;;;5.72;;
13147;SDS011;6639;50.956;4.242;2022-10-31T15:28:13;7.63;;;5.53;;
13147;SDS011;6639;50.956;4.242;2022-10-31T15:30:48;10.32;;;5.30;;
13147;SDS011;6639;50.956;4.242;2022-10-31T15:33:21;7.65;;;5.50;;
13147;SDS011;6639;50.956;4.242;2022-10-31T15:35:54;8.48;;;5.40;;